sensor_id;sensor_type;location;lat;lon;timestamp;P1;durP1;ratioP1;P2;durP2;ratioP2
33270;SDS011;53180;51.344;6.152;2022-07-05T00:01:53;3.33;;;1.55;;
33270;SDS011;53180;51.344;6.152;2022-07-05T00:04:22;2.20;;;1.73;;
33270;SDS011;53180;51.344;6.152;2022-07-05T00:06:50;4.22;;;2.22;;
33270;SDS011;53180;51.344;6.152;2022-07-05T00:09:36;1.80;;;1.67;;
33270;SDS011;53180;51.344;6.152;2022-07-05T00:12:04;1.70;;;1.60;;
33270;SDS011;53180;51.344;6.152;2022-07-05T00:14:35;1.65;;;1.50;;
33270;SDS011;53180;51.344;6.152;2022-07-05T00:17:03;1.92;;;1.80;;
33270;SDS011;53180;51.344;6.152;2022-07-05T00:19:32;1.45;;;1.35;;
33270;SDS011;53180;51.344;6.152;2022-07-05T00:22:00;4.03;;;1.98;;
33270;SDS011;53180;51.344;6.152;2022-07-05T00:24:29;1.80;;;1.70;;
33270;SDS011;53180;51.344;6.152;2022-07-05T00:26:57;2.05;;;1.75;;
33270;SDS011;53180;51.344;6.152;2022-07-05T00:29:25;2.28;;;1.80;;
33270;SDS011;53180;51.344;6.152;2022-07-05T00:31:55;1.52;;;1.42;;
33270;SDS011;53180;51.344;6.152;2022-07-05T00:34:24;2.90;;;1.80;;
33270;SDS011;53180;51.344;6.152;2022-07-05T00:36:52;5.35;;;2.08;;
33270;SDS011;53180;51.344;6.152;2022-07-05T00:39:20;3.10;;;1.92;;
33270;SDS011;53180;51.344;6.152;2022-07-05T00:41:49;9.95;;;1.95;;
33270;SDS011;53180;51.344;6.152;2022-07-05T00:44:26;1.80;;;1.70;;
33270;SDS011;53180;51.344;6.152;2022-07-05T00:46:58;1.63;;;1.52;;
33270;SDS011;53180;51.344;6.152;2022-07-05T00:49:26;1.83;;;1.73;;
33270;SDS011;53180;51.344;6.152;2022-07-05T00:51:54;2.25;;;2.03;;
33270;SDS011;53180;51.344;6.152;2022-07-05T00:54:43;1.98;;;1.80;;
33270;SDS011;53180;51.344;6.152;2022-07-05T00:57:11;2.58;;;2.08;;
33270;SDS011;53180;51.344;6.152;2022-07-05T00:59:40;2.38;;;2.08;;
33270;SDS011;53180;51.344;6.152;2022-07-05T01:02:09;3.08;;;2.25;;
33270;SDS011;53180;51.344;6.152;2022-07-05T01:04:44;2.25;;;2.05;;
33270;SDS011;53180;51.344;6.152;2022-07-05T01:07:15;2.40;;;2.20;;
33270;SDS011;53180;51.344;6.152;2022-07-05T01:09:45;2.58;;;2.38;;
33270;SDS011;53180;51.344;6.152;2022-07-05T01:12:13;2.25;;;2.05;;
33270;SDS011;53180;51.344;6.152;2022-07-05T01:14:43;2.10;;;1.90;;
33270;SDS011;53180;51.344;6.152;2022-07-05T01:17:14;3.63;;;1.98;;
33270;SDS011;53180;51.344;6.152;2022-07-05T01:19:43;1.95;;;1.83;;
33270;SDS011;53180;51.344;6.152;2022-07-05T01:22:12;2.40;;;2.20;;
33270;SDS011;53180;51.344;6.152;2022-07-05T01:24:47;2.25;;;1.67;;
33270;SDS011;53180;51.344;6.152;2022-07-05T01:27:17;2.63;;;2.03;;
33270;SDS011;53180;51.344;6.152;2022-07-05T01:29:46;1.88;;;1.77;;
33270;SDS011;53180;51.344;6.152;2022-07-05T01:32:15;2.22;;;2.03;;
33270;SDS011;53180;51.344;6.152;2022-07-05T01:34:43;2.83;;;2.35;;
33270;SDS011;53180;51.344;6.152;2022-07-05T01:37:12;2.05;;;1.95;;
33270;SDS011;53180;51.344;6.152;2022-07-05T01:39:41;2.45;;;1.92;;
33270;SDS011;53180;51.344;6.152;2022-07-05T01:42:10;2.17;;;2.00;;
33270;SDS011;53180;51.344;6.152;2022-07-05T01:44:39;2.92;;;2.40;;
33270;SDS011;53180;51.344;6.152;2022-07-05T01:47:08;2.50;;;2.28;;
33270;SDS011;53180;51.344;6.152;2022-07-05T01:49:38;2.13;;;2.00;;
33270;SDS011;53180;51.344;6.152;2022-07-05T01:52:10;2.10;;;1.90;;
33270;SDS011;53180;51.344;6.152;2022-07-05T01:54:40;2.58;;;2.38;;
33270;SDS011;53180;51.344;6.152;2022-07-05T01:57:11;2.03;;;1.92;;
33270;SDS011;53180;51.344;6.152;2022-07-05T01:59:40;2.30;;;2.10;;
33270;SDS011;53180;51.344;6.152;2022-07-05T02:02:08;2.47;;;2.10;;
33270;SDS011;53180;51.344;6.152;2022-07-05T02:04:36;2.80;;;2.17;;
33270;SDS011;53180;51.344;6.152;2022-07-05T02:07:05;2.35;;;2.10;;
33270;SDS011;53180;51.344;6.152;2022-07-05T02:09:34;2.58;;;1.98;;
33270;SDS011;53180;51.344;6.152;2022-07-05T02:12:03;1.75;;;1.65;;
33270;SDS011;53180;51.344;6.152;2022-07-05T02:14:33;2.53;;;2.10;;
33270;SDS011;53180;51.344;6.152;2022-07-05T02:17:02;2.25;;;2.05;;
33270;SDS011;53180;51.344;6.152;2022-07-05T02:19:31;3.10;;;2.28;;
33270;SDS011;53180;51.344;6.152;2022-07-05T02:21:59;4.20;;;1.90;;
33270;SDS011;53180;51.344;6.152;2022-07-05T02:24:27;2.55;;;2.35;;
33270;SDS011;53180;51.344;6.152;2022-07-05T02:26:55;2.40;;;2.20;;
33270;SDS011;53180;51.344;6.152;2022-07-05T02:29:25;2.10;;;2.00;;
33270;SDS011;53180;51.344;6.152;2022-07-05T02:31:55;2.22;;;2.03;;
33270;SDS011;53180;51.344;6.152;2022-07-05T02:34:23;1.95;;;1.80;;
33270;SDS011;53180;51.344;6.152;2022-07-05T02:36:52;2.20;;;2.00;;
33270;SDS011;53180;51.344;6.152;2022-07-05T02:39:20;2.17;;;1.98;;
33270;SDS011;53180;51.344;6.152;2022-07-05T02:41:48;2.35;;;2.15;;
33270;SDS011;53180;51.344;6.152;2022-07-05T02:44:17;3.95;;;2.10;;
33270;SDS011;53180;51.344;6.152;2022-07-05T02:57:45;2.50;;;2.30;;
33270;SDS011;53180;51.344;6.152;2022-07-05T03:03:03;2.40;;;2.20;;
33270;SDS011;53180;51.344;6.152;2022-07-05T03:05:32;2.00;;;1.90;;
33270;SDS011;53180;51.344;6.152;2022-07-05T03:08:00;2.25;;;2.15;;
33270;SDS011;53180;51.344;6.152;2022-07-05T03:18:23;2.05;;;1.92;;
33270;SDS011;53180;51.344;6.152;2022-07-05T03:27:20;2.42;;;2.28;;
33270;SDS011;53180;51.344;6.152;2022-07-05T03:29:48;2.83;;;2.55;;
33270;SDS011;53180;51.344;6.152;2022-07-05T03:32:16;2.20;;;2.10;;
33270;SDS011;53180;51.344;6.152;2022-07-05T03:34:46;2.97;;;2.78;;
33270;SDS011;53180;51.344;6.152;2022-07-05T03:37:14;2.53;;;2.33;;
33270;SDS011;53180;51.344;6.152;2022-07-05T03:39:43;2.28;;;2.13;;
33270;SDS011;53180;51.344;6.152;2022-07-05T03:42:12;2.78;;;2.58;;
33270;SDS011;53180;51.344;6.152;2022-07-05T03:44:40;4.22;;;2.85;;
33270;SDS011;53180;51.344;6.152;2022-07-05T03:47:08;2.75;;;2.55;;
33270;SDS011;53180;51.344;6.152;2022-07-05T03:49:37;2.85;;;2.60;;
33270;SDS011;53180;51.344;6.152;2022-07-05T03:52:06;2.60;;;2.40;;
33270;SDS011;53180;51.344;6.152;2022-07-05T03:54:35;3.20;;;3.00;;
33270;SDS011;53180;51.344;6.152;2022-07-05T03:57:03;3.42;;;3.13;;
33270;SDS011;53180;51.344;6.152;2022-07-05T03:59:32;3.20;;;2.85;;
33270;SDS011;53180;51.344;6.152;2022-07-05T04:02:00;2.78;;;2.58;;
33270;SDS011;53180;51.344;6.152;2022-07-05T04:04:28;3.20;;;2.90;;
33270;SDS011;53180;51.344;6.152;2022-07-05T04:06:56;3.10;;;2.58;;
33270;SDS011;53180;51.344;6.152;2022-07-05T04:09:26;2.63;;;2.42;;
33270;SDS011;53180;51.344;6.152;2022-07-05T04:11:55;2.33;;;2.22;;
33270;SDS011;53180;51.344;6.152;2022-07-05T04:14:23;2.85;;;2.65;;
33270;SDS011;53180;51.344;6.152;2022-07-05T04:16:51;3.05;;;2.85;;
33270;SDS011;53180;51.344;6.152;2022-07-05T04:19:20;3.25;;;3.03;;
33270;SDS011;53180;51.344;6.152;2022-07-05T04:21:48;3.53;;;3.30;;
33270;SDS011;53180;51.344;6.152;2022-07-05T04:24:16;3.50;;;3.30;;
33270;SDS011;53180;51.344;6.152;2022-07-05T04:26:46;4.43;;;4.13;;
33270;SDS011;53180;51.344;6.152;2022-07-05T04:29:14;6.75;;;6.15;;
33270;SDS011;53180;51.344;6.152;2022-07-05T04:31:43;9.18;;;6.07;;
33270;SDS011;53180;51.344;6.152;2022-07-05T04:34:11;8.98;;;8.15;;
33270;SDS011;53180;51.344;6.152;2022-07-05T04:36:39;9.15;;;8.20;;
33270;SDS011;53180;51.344;6.152;2022-07-05T04:39:08;10.38;;;8.30;;
33270;SDS011;53180;51.344;6.152;2022-07-05T04:41:36;10.95;;;8.18;;
33270;SDS011;53180;51.344;6.152;2022-07-05T04:44:06;27.40;;;16.52;;
33270;SDS011;53180;51.344;6.152;2022-07-05T04:46:35;13.40;;;9.68;;
33270;SDS011;53180;51.344;6.152;2022-07-05T04:49:03;8.07;;;6.82;;
33270;SDS011;53180;51.344;6.152;2022-07-05T04:51:32;8.55;;;7.13;;
33270;SDS011;53180;51.344;6.152;2022-07-05T04:54:00;7.75;;;6.88;;
33270;SDS011;53180;51.344;6.152;2022-07-05T04:56:28;8.05;;;7.25;;
33270;SDS011;53180;51.344;6.152;2022-07-05T04:58:57;12.27;;;8.55;;
33270;SDS011;53180;51.344;6.152;2022-07-05T05:01:26;10.43;;;8.75;;
33270;SDS011;53180;51.344;6.152;2022-07-05T05:03:55;9.98;;;8.85;;
33270;SDS011;53180;51.344;6.152;2022-07-05T05:06:23;8.38;;;7.57;;
33270;SDS011;53180;51.344;6.152;2022-07-05T05:08:51;10.20;;;6.47;;
33270;SDS011;53180;51.344;6.152;2022-07-05T05:11:19;7.43;;;6.63;;
33270;SDS011;53180;51.344;6.152;2022-07-05T05:13:48;7.75;;;6.97;;
33270;SDS011;53180;51.344;6.152;2022-07-05T05:16:16;16.15;;;5.20;;
33270;SDS011;53180;51.344;6.152;2022-07-05T05:18:46;9.15;;;6.10;;
33270;SDS011;53180;51.344;6.152;2022-07-05T05:21:14;7.18;;;6.00;;
33270;SDS011;53180;51.344;6.152;2022-07-05T05:23:42;6.72;;;6.10;;
33270;SDS011;53180;51.344;6.152;2022-07-05T05:26:11;7.63;;;6.13;;
33270;SDS011;53180;51.344;6.152;2022-07-05T05:28:39;6.40;;;5.70;;
33270;SDS011;53180;51.344;6.152;2022-07-05T05:31:08;5.95;;;5.22;;
33270;SDS011;53180;51.344;6.152;2022-07-05T05:33:36;11.13;;;6.32;;
33270;SDS011;53180;51.344;6.152;2022-07-05T05:36:06;7.25;;;6.05;;
33270;SDS011;53180;51.344;6.152;2022-07-05T05:38:35;6.05;;;5.43;;
33270;SDS011;53180;51.344;6.152;2022-07-05T05:41:04;8.20;;;6.60;;
33270;SDS011;53180;51.344;6.152;2022-07-05T05:43:32;6.40;;;5.80;;
33270;SDS011;53180;51.344;6.152;2022-07-05T05:46:00;8.15;;;6.97;;
33270;SDS011;53180;51.344;6.152;2022-07-05T05:48:30;11.13;;;7.30;;
33270;SDS011;53180;51.344;6.152;2022-07-05T05:50:59;9.52;;;7.30;;
33270;SDS011;53180;51.344;6.152;2022-07-05T05:53:29;6.65;;;5.03;;
33270;SDS011;53180;51.344;6.152;2022-07-05T05:55:57;5.50;;;4.60;;
33270;SDS011;53180;51.344;6.152;2022-07-05T05:58:25;5.82;;;4.68;;
33270;SDS011;53180;51.344;6.152;2022-07-05T06:00:54;7.45;;;4.25;;
33270;SDS011;53180;51.344;6.152;2022-07-05T06:03:23;9.27;;;4.80;;
33270;SDS011;53180;51.344;6.152;2022-07-05T06:05:53;5.05;;;4.15;;
33270;SDS011;53180;51.344;6.152;2022-07-05T06:08:21;6.53;;;4.47;;
33270;SDS011;53180;51.344;6.152;2022-07-05T06:10:51;7.47;;;4.18;;
33270;SDS011;53180;51.344;6.152;2022-07-05T06:13:27;5.57;;;4.05;;
33270;SDS011;53180;51.344;6.152;2022-07-05T06:15:55;3.97;;;3.13;;
33270;SDS011;53180;51.344;6.152;2022-07-05T06:18:24;4.35;;;3.40;;
33270;SDS011;53180;51.344;6.152;2022-07-05T06:20:52;3.88;;;3.47;;
33270;SDS011;53180;51.344;6.152;2022-07-05T06:23:21;7.10;;;4.50;;
33270;SDS011;53180;51.344;6.152;2022-07-05T06:25:49;5.07;;;4.03;;
33270;SDS011;53180;51.344;6.152;2022-07-05T06:28:19;5.05;;;3.65;;
33270;SDS011;53180;51.344;6.152;2022-07-05T06:30:47;5.65;;;3.72;;
33270;SDS011;53180;51.344;6.152;2022-07-05T06:33:15;4.03;;;3.33;;
33270;SDS011;53180;51.344;6.152;2022-07-05T06:35:44;5.45;;;3.63;;
33270;SDS011;53180;51.344;6.152;2022-07-05T06:38:12;3.50;;;2.88;;
33270;SDS011;53180;51.344;6.152;2022-07-05T06:40:41;5.15;;;3.85;;
33270;SDS011;53180;51.344;6.152;2022-07-05T06:43:10;12.95;;;4.22;;
33270;SDS011;53180;51.344;6.152;2022-07-05T06:45:42;7.43;;;3.60;;
33270;SDS011;53180;51.344;6.152;2022-07-05T06:48:11;4.78;;;3.30;;
33270;SDS011;53180;51.344;6.152;2022-07-05T06:50:40;10.80;;;4.78;;
33270;SDS011;53180;51.344;6.152;2022-07-05T06:53:10;3.50;;;2.70;;
33270;SDS011;53180;51.344;6.152;2022-07-05T06:55:39;5.70;;;3.33;;
33270;SDS011;53180;51.344;6.152;2022-07-05T06:58:18;23.98;;;4.63;;
33270;SDS011;53180;51.344;6.152;2022-07-05T07:00:48;20.55;;;3.92;;
33270;SDS011;53180;51.344;6.152;2022-07-05T07:03:36;6.43;;;2.72;;
33270;SDS011;53180;51.344;6.152;2022-07-05T07:06:25;2.28;;;2.00;;
33270;SDS011;53180;51.344;6.152;2022-07-05T07:08:53;2.72;;;2.13;;
33270;SDS011;53180;51.344;6.152;2022-07-05T07:11:38;4.05;;;2.15;;
33270;SDS011;53180;51.344;6.152;2022-07-05T07:14:06;3.67;;;2.50;;
33270;SDS011;53180;51.344;6.152;2022-07-05T07:16:36;2.75;;;2.05;;
33270;SDS011;53180;51.344;6.152;2022-07-05T07:19:04;2.53;;;2.00;;
33270;SDS011;53180;51.344;6.152;2022-07-05T07:21:37;2.10;;;1.83;;
33270;SDS011;53180;51.344;6.152;2022-07-05T07:24:06;2.47;;;1.85;;
33270;SDS011;53180;51.344;6.152;2022-07-05T07:26:35;2.80;;;2.15;;
33270;SDS011;53180;51.344;6.152;2022-07-05T07:29:21;2.25;;;1.88;;
33270;SDS011;53180;51.344;6.152;2022-07-05T07:31:51;3.50;;;1.90;;
33270;SDS011;53180;51.344;6.152;2022-07-05T07:34:20;2.28;;;1.80;;
33270;SDS011;53180;51.344;6.152;2022-07-05T07:36:48;3.22;;;1.98;;
33270;SDS011;53180;51.344;6.152;2022-07-05T07:39:17;8.15;;;1.65;;
33270;SDS011;53180;51.344;6.152;2022-07-05T07:41:45;54.03;;;4.97;;
33270;SDS011;53180;51.344;6.152;2022-07-05T07:44:14;4.97;;;1.88;;
33270;SDS011;53180;51.344;6.152;2022-07-05T07:46:43;3.60;;;1.83;;
33270;SDS011;53180;51.344;6.152;2022-07-05T07:49:14;8.35;;;2.15;;
33270;SDS011;53180;51.344;6.152;2022-07-05T07:51:42;4.80;;;2.53;;
33270;SDS011;53180;51.344;6.152;2022-07-05T07:54:11;2.60;;;2.03;;
33270;SDS011;53180;51.344;6.152;2022-07-05T07:56:40;3.58;;;1.85;;
33270;SDS011;53180;51.344;6.152;2022-07-05T07:59:09;2.60;;;1.70;;
33270;SDS011;53180;51.344;6.152;2022-07-05T08:01:37;2.08;;;1.88;;
33270;SDS011;53180;51.344;6.152;2022-07-05T08:04:11;2.17;;;1.88;;
33270;SDS011;53180;51.344;6.152;2022-07-05T08:06:42;1.90;;;1.60;;
33270;SDS011;53180;51.344;6.152;2022-07-05T08:09:10;3.17;;;1.58;;
33270;SDS011;53180;51.344;6.152;2022-07-05T08:11:43;7.28;;;1.80;;
33270;SDS011;53180;51.344;6.152;2022-07-05T08:14:13;4.18;;;2.45;;
33270;SDS011;53180;51.344;6.152;2022-07-05T08:16:42;2.40;;;2.00;;
33270;SDS011;53180;51.344;6.152;2022-07-05T08:19:18;3.80;;;1.85;;
33270;SDS011;53180;51.344;6.152;2022-07-05T08:22:19;2.17;;;1.75;;
33270;SDS011;53180;51.344;6.152;2022-07-05T08:24:48;3.45;;;2.40;;
33270;SDS011;53180;51.344;6.152;2022-07-05T08:27:17;7.18;;;2.22;;
33270;SDS011;53180;51.344;6.152;2022-07-05T08:29:46;2.72;;;2.05;;
33270;SDS011;53180;51.344;6.152;2022-07-05T08:32:14;3.08;;;2.10;;
33270;SDS011;53180;51.344;6.152;2022-07-05T08:34:44;3.75;;;1.75;;
33270;SDS011;53180;51.344;6.152;2022-07-05T08:37:14;3.22;;;1.70;;
33270;SDS011;53180;51.344;6.152;2022-07-05T08:39:42;4.53;;;1.58;;
33270;SDS011;53180;51.344;6.152;2022-07-05T08:42:11;3.28;;;1.88;;
33270;SDS011;53180;51.344;6.152;2022-07-05T08:44:40;2.60;;;1.48;;
33270;SDS011;53180;51.344;6.152;2022-07-05T08:47:12;4.28;;;1.15;;
33270;SDS011;53180;51.344;6.152;2022-07-05T08:49:43;1.35;;;1.23;;
33270;SDS011;53180;51.344;6.152;2022-07-05T08:52:15;2.15;;;1.60;;
33270;SDS011;53180;51.344;6.152;2022-07-05T08:54:47;2.63;;;1.42;;
33270;SDS011;53180;51.344;6.152;2022-07-05T08:57:19;3.30;;;1.48;;
33270;SDS011;53180;51.344;6.152;2022-07-05T08:59:47;1.65;;;1.25;;
33270;SDS011;53180;51.344;6.152;2022-07-05T09:02:15;0.93;;;0.82;;
33270;SDS011;53180;51.344;6.152;2022-07-05T09:04:46;1.67;;;1.08;;
33270;SDS011;53180;51.344;6.152;2022-07-05T09:07:19;1.27;;;0.90;;
33270;SDS011;53180;51.344;6.152;2022-07-05T09:09:50;1.83;;;1.20;;
33270;SDS011;53180;51.344;6.152;2022-07-05T09:12:19;1.98;;;1.20;;
33270;SDS011;53180;51.344;6.152;2022-07-05T09:14:51;2.42;;;1.55;;
33270;SDS011;53180;51.344;6.152;2022-07-05T09:17:20;1.42;;;1.10;;
33270;SDS011;53180;51.344;6.152;2022-07-05T09:20:07;1.67;;;1.02;;
33270;SDS011;53180;51.344;6.152;2022-07-05T09:22:46;1.85;;;1.17;;
33270;SDS011;53180;51.344;6.152;2022-07-05T09:25:20;1.80;;;0.85;;
33270;SDS011;53180;51.344;6.152;2022-07-05T09:27:51;4.13;;;0.80;;
33270;SDS011;53180;51.344;6.152;2022-07-05T09:30:27;0.98;;;0.75;;
33270;SDS011;53180;51.344;6.152;2022-07-05T09:33:01;1.90;;;0.88;;
33270;SDS011;53180;51.344;6.152;2022-07-05T09:35:36;1.20;;;1.10;;
33270;SDS011;53180;51.344;6.152;2022-07-05T09:38:15;2.55;;;1.25;;
33270;SDS011;53180;51.344;6.152;2022-07-05T09:40:46;2.00;;;0.93;;
33270;SDS011;53180;51.344;6.152;2022-07-05T09:43:16;0.98;;;0.77;;
33270;SDS011;53180;51.344;6.152;2022-07-05T09:45:49;2.50;;;0.80;;
33270;SDS011;53180;51.344;6.152;2022-07-05T09:48:23;2.05;;;1.00;;
33270;SDS011;53180;51.344;6.152;2022-07-05T09:51:06;1.20;;;0.95;;
33270;SDS011;53180;51.344;6.152;2022-07-05T09:53:56;1.58;;;1.00;;
33270;SDS011;53180;51.344;6.152;2022-07-05T09:56:38;1.45;;;1.00;;
33270;SDS011;53180;51.344;6.152;2022-07-05T09:59:12;1.13;;;0.82;;
33270;SDS011;53180;51.344;6.152;2022-07-05T10:04:11;0.47;;;0.47;;
33270;SDS011;53180;51.344;6.152;2022-07-05T10:06:42;1.35;;;0.80;;
33270;SDS011;53180;51.344;6.152;2022-07-05T10:09:10;2.80;;;1.00;;
33270;SDS011;53180;51.344;6.152;2022-07-05T10:11:41;0.90;;;0.80;;
33270;SDS011;53180;51.344;6.152;2022-07-05T10:16:56;3.47;;;0.80;;
33270;SDS011;53180;51.344;6.152;2022-07-05T10:19:30;0.65;;;0.57;;
33270;SDS011;53180;51.344;6.152;2022-07-05T10:22:03;1.55;;;0.80;;
33270;SDS011;53180;51.344;6.152;2022-07-05T10:24:44;4.97;;;0.80;;
33270;SDS011;53180;51.344;6.152;2022-07-05T10:27:14;0.70;;;0.63;;
33270;SDS011;53180;51.344;6.152;2022-07-05T10:29:44;1.02;;;0.80;;
33270;SDS011;53180;51.344;6.152;2022-07-05T10:32:13;1.38;;;0.73;;
33270;SDS011;53180;51.344;6.152;2022-07-05T10:34:43;1.45;;;0.90;;
33270;SDS011;53180;51.344;6.152;2022-07-05T10:37:21;5.05;;;0.70;;
33270;SDS011;53180;51.344;6.152;2022-07-05T10:39:53;0.98;;;0.65;;
33270;SDS011;53180;51.344;6.152;2022-07-05T10:42:23;1.52;;;0.85;;
33270;SDS011;53180;51.344;6.152;2022-07-05T10:44:53;0.50;;;0.50;;
33270;SDS011;53180;51.344;6.152;2022-07-05T10:47:22;1.20;;;0.63;;
33270;SDS011;53180;51.344;6.152;2022-07-05T10:50:02;1.05;;;0.80;;
33270;SDS011;53180;51.344;6.152;2022-07-05T10:52:35;3.38;;;0.80;;
33270;SDS011;53180;51.344;6.152;2022-07-05T10:55:19;1.10;;;0.65;;
33270;SDS011;53180;51.344;6.152;2022-07-05T11:07:02;2.05;;;0.98;;
33270;SDS011;53180;51.344;6.152;2022-07-05T11:09:33;1.52;;;0.82;;
33270;SDS011;53180;51.344;6.152;2022-07-05T11:12:07;1.30;;;0.90;;
33270;SDS011;53180;51.344;6.152;2022-07-05T11:15:03;2.67;;;0.82;;
33270;SDS011;53180;51.344;6.152;2022-07-05T11:17:37;1.63;;;0.70;;
33270;SDS011;53180;51.344;6.152;2022-07-05T11:20:26;2.22;;;1.25;;
33270;SDS011;53180;51.344;6.152;2022-07-05T11:23:04;1.75;;;0.95;;
33270;SDS011;53180;51.344;6.152;2022-07-05T11:25:44;2.70;;;0.90;;
33270;SDS011;53180;51.344;6.152;2022-07-05T11:28:17;0.63;;;0.60;;
33270;SDS011;53180;51.344;6.152;2022-07-05T11:30:51;1.20;;;0.70;;
33270;SDS011;53180;51.344;6.152;2022-07-05T11:33:27;4.28;;;0.90;;
33270;SDS011;53180;51.344;6.152;2022-07-05T11:39:12;0.88;;;0.70;;
33270;SDS011;53180;51.344;6.152;2022-07-05T11:41:45;2.15;;;0.80;;
33270;SDS011;53180;51.344;6.152;2022-07-05T11:44:15;2.03;;;0.70;;
33270;SDS011;53180;51.344;6.152;2022-07-05T11:46:44;8.68;;;0.85;;
33270;SDS011;53180;51.344;6.152;2022-07-05T11:49:18;1.70;;;0.80;;
33270;SDS011;53180;51.344;6.152;2022-07-05T11:51:55;0.60;;;0.60;;
33270;SDS011;53180;51.344;6.152;2022-07-05T11:54:25;3.25;;;0.65;;
33270;SDS011;53180;51.344;6.152;2022-07-05T11:56:57;6.72;;;0.68;;
33270;SDS011;53180;51.344;6.152;2022-07-05T11:59:27;1.05;;;0.70;;
33270;SDS011;53180;51.344;6.152;2022-07-05T12:01:55;1.42;;;0.80;;
33270;SDS011;53180;51.344;6.152;2022-07-05T12:04:25;1.98;;;0.70;;
33270;SDS011;53180;51.344;6.152;2022-07-05T12:06:55;0.45;;;0.32;;
33270;SDS011;53180;51.344;6.152;2022-07-05T12:09:25;1.63;;;0.70;;
33270;SDS011;53180;51.344;6.152;2022-07-05T12:12:18;0.60;;;0.60;;
33270;SDS011;53180;51.344;6.152;2022-07-05T12:15:05;1.30;;;0.70;;
33270;SDS011;53180;51.344;6.152;2022-07-05T12:17:35;0.98;;;0.63;;
33270;SDS011;53180;51.344;6.152;2022-07-05T12:20:06;2.22;;;0.57;;
33270;SDS011;53180;51.344;6.152;2022-07-05T12:22:38;0.73;;;0.60;;
33270;SDS011;53180;51.344;6.152;2022-07-05T12:27:41;0.95;;;0.50;;
33270;SDS011;53180;51.344;6.152;2022-07-05T12:30:11;1.55;;;0.80;;
33270;SDS011;53180;51.344;6.152;2022-07-05T12:32:52;0.85;;;0.60;;
33270;SDS011;53180;51.344;6.152;2022-07-05T12:35:27;1.08;;;0.47;;
33270;SDS011;53180;51.344;6.152;2022-07-05T12:38:01;0.50;;;0.40;;
33270;SDS011;53180;51.344;6.152;2022-07-05T12:40:35;0.90;;;0.50;;
33270;SDS011;53180;51.344;6.152;2022-07-05T12:43:08;3.95;;;0.70;;
33270;SDS011;53180;51.344;6.152;2022-07-05T12:45:38;4.43;;;0.93;;
33270;SDS011;53180;51.344;6.152;2022-07-05T12:48:08;0.95;;;0.70;;
33270;SDS011;53180;51.344;6.152;2022-07-05T12:50:45;0.85;;;0.60;;
33270;SDS011;53180;51.344;6.152;2022-07-05T12:53:43;2.00;;;0.70;;
33270;SDS011;53180;51.344;6.152;2022-07-05T12:56:30;2.47;;;1.05;;
33270;SDS011;53180;51.344;6.152;2022-07-05T12:59:37;1.17;;;0.50;;
33270;SDS011;53180;51.344;6.152;2022-07-05T13:02:07;2.58;;;0.93;;
33270;SDS011;53180;51.344;6.152;2022-07-05T13:04:36;0.93;;;0.60;;
33270;SDS011;53180;51.344;6.152;2022-07-05T13:07:09;1.77;;;0.90;;
33270;SDS011;53180;51.344;6.152;2022-07-05T13:10:13;1.17;;;0.73;;
33270;SDS011;53180;51.344;6.152;2022-07-05T13:12:45;1.35;;;0.88;;
33270;SDS011;53180;51.344;6.152;2022-07-05T13:15:16;4.25;;;1.17;;
33270;SDS011;53180;51.344;6.152;2022-07-05T13:17:45;1.65;;;1.25;;
33270;SDS011;53180;51.344;6.152;2022-07-05T13:20:15;2.38;;;1.33;;
33270;SDS011;53180;51.344;6.152;2022-07-05T13:22:46;2.65;;;1.30;;
33270;SDS011;53180;51.344;6.152;2022-07-05T13:25:15;1.33;;;1.17;;
33270;SDS011;53180;51.344;6.152;2022-07-05T13:27:44;2.58;;;1.67;;
33270;SDS011;53180;51.344;6.152;2022-07-05T13:30:12;1.40;;;1.15;;
33270;SDS011;53180;51.344;6.152;2022-07-05T13:32:42;12.25;;;6.50;;
33270;SDS011;53180;51.344;6.152;2022-07-05T13:35:10;4.82;;;2.83;;
33270;SDS011;53180;51.344;6.152;2022-07-05T13:37:39;3.25;;;2.05;;
33270;SDS011;53180;51.344;6.152;2022-07-05T13:40:08;2.22;;;1.40;;
33270;SDS011;53180;51.344;6.152;2022-07-05T13:42:38;1.65;;;1.30;;
33270;SDS011;53180;51.344;6.152;2022-07-05T13:45:06;1.85;;;1.20;;
33270;SDS011;53180;51.344;6.152;2022-07-05T13:47:36;2.40;;;1.20;;
33270;SDS011;53180;51.344;6.152;2022-07-05T13:50:06;1.45;;;1.10;;
33270;SDS011;53180;51.344;6.152;2022-07-05T13:52:52;1.55;;;0.98;;
33270;SDS011;53180;51.344;6.152;2022-07-05T13:55:21;2.35;;;1.52;;
33270;SDS011;53180;51.344;6.152;2022-07-05T13:57:49;1.23;;;0.90;;
33270;SDS011;53180;51.344;6.152;2022-07-05T14:00:17;1.45;;;0.95;;
33270;SDS011;53180;51.344;6.152;2022-07-05T14:02:46;3.65;;;1.10;;
33270;SDS011;53180;51.344;6.152;2022-07-05T14:05:16;2.25;;;1.15;;
33270;SDS011;53180;51.344;6.152;2022-07-05T14:07:46;1.20;;;0.88;;
33270;SDS011;53180;51.344;6.152;2022-07-05T14:10:15;6.10;;;0.90;;
33270;SDS011;53180;51.344;6.152;2022-07-05T14:12:43;1.70;;;1.00;;
33270;SDS011;53180;51.344;6.152;2022-07-05T14:15:12;1.83;;;0.82;;
33270;SDS011;53180;51.344;6.152;2022-07-05T14:17:40;2.20;;;0.85;;
33270;SDS011;53180;51.344;6.152;2022-07-05T14:20:09;2.00;;;0.63;;
33270;SDS011;53180;51.344;6.152;2022-07-05T14:22:38;0.70;;;0.70;;
33270;SDS011;53180;51.344;6.152;2022-07-05T14:25:07;1.50;;;0.57;;
33270;SDS011;53180;51.344;6.152;2022-07-05T14:27:35;1.20;;;0.77;;
33270;SDS011;53180;51.344;6.152;2022-07-05T14:30:05;0.70;;;0.57;;
33270;SDS011;53180;51.344;6.152;2022-07-05T14:32:36;1.05;;;0.60;;
33270;SDS011;53180;51.344;6.152;2022-07-05T14:35:13;7.60;;;1.05;;
33270;SDS011;53180;51.344;6.152;2022-07-05T14:37:43;2.55;;;1.20;;
33270;SDS011;53180;51.344;6.152;2022-07-05T14:40:11;1.35;;;1.00;;
33270;SDS011;53180;51.344;6.152;2022-07-05T14:42:40;2.30;;;1.27;;
33270;SDS011;53180;51.344;6.152;2022-07-05T14:45:09;1.70;;;1.02;;
33270;SDS011;53180;51.344;6.152;2022-07-05T14:47:37;1.42;;;1.00;;
33270;SDS011;53180;51.344;6.152;2022-07-05T14:50:06;3.25;;;0.90;;
33270;SDS011;53180;51.344;6.152;2022-07-05T14:52:35;2.03;;;1.00;;
33270;SDS011;53180;51.344;6.152;2022-07-05T14:55:05;1.67;;;0.63;;
33270;SDS011;53180;51.344;6.152;2022-07-05T14:57:35;0.38;;;0.38;;
33270;SDS011;53180;51.344;6.152;2022-07-05T15:00:04;0.90;;;0.65;;
33270;SDS011;53180;51.344;6.152;2022-07-05T15:02:36;0.95;;;0.77;;
33270;SDS011;53180;51.344;6.152;2022-07-05T15:05:05;0.82;;;0.57;;
33270;SDS011;53180;51.344;6.152;2022-07-05T15:07:36;1.33;;;0.60;;
33270;SDS011;53180;51.344;6.152;2022-07-05T15:10:08;0.73;;;0.50;;
33270;SDS011;53180;51.344;6.152;2022-07-05T15:12:36;0.80;;;0.63;;
33270;SDS011;53180;51.344;6.152;2022-07-05T15:15:05;0.95;;;0.55;;
33270;SDS011;53180;51.344;6.152;2022-07-05T15:17:35;2.25;;;0.65;;
33270;SDS011;53180;51.344;6.152;2022-07-05T15:20:04;1.63;;;0.80;;
33270;SDS011;53180;51.344;6.152;2022-07-05T15:22:33;0.55;;;0.55;;
33270;SDS011;53180;51.344;6.152;2022-07-05T15:25:01;0.88;;;0.70;;
33270;SDS011;53180;51.344;6.152;2022-07-05T15:27:32;1.27;;;0.80;;
33270;SDS011;53180;51.344;6.152;2022-07-05T15:30:00;1.45;;;0.88;;
33270;SDS011;53180;51.344;6.152;2022-07-05T15:32:29;2.35;;;0.80;;
33270;SDS011;53180;51.344;6.152;2022-07-05T15:34:57;1.00;;;0.90;;
33270;SDS011;53180;51.344;6.152;2022-07-05T15:37:25;2.90;;;0.55;;
33270;SDS011;53180;51.344;6.152;2022-07-05T15:39:54;2.72;;;1.50;;
33270;SDS011;53180;51.344;6.152;2022-07-05T15:42:24;3.15;;;1.65;;
33270;SDS011;53180;51.344;6.152;2022-07-05T15:44:54;3.63;;;1.83;;
33270;SDS011;53180;51.344;6.152;2022-07-05T15:47:28;9.30;;;4.68;;
33270;SDS011;53180;51.344;6.152;2022-07-05T15:49:56;2.08;;;0.90;;
33270;SDS011;53180;51.344;6.152;2022-07-05T15:52:25;5.05;;;0.95;;
33270;SDS011;53180;51.344;6.152;2022-07-05T15:54:53;0.85;;;0.73;;
33270;SDS011;53180;51.344;6.152;2022-07-05T15:57:21;1.70;;;0.88;;
33270;SDS011;53180;51.344;6.152;2022-07-05T15:59:53;0.95;;;0.85;;